createdAt,value
2019-05-02T00:01:23.665Z,9.50
2019-05-02T00:03:56.430Z,9.67
2019-05-02T00:06:29.724Z,9.23
2019-05-02T00:09:03.938Z,9.50
2019-05-02T00:11:39.082Z,9.30
2019-05-02T00:14:12.791Z,7.73
2019-05-02T00:16:49.312Z,8.20
2019-05-02T00:19:19.978Z,8.27
2019-05-02T00:21:53.266Z,8.53
2019-05-02T00:24:26.985Z,8.20
2019-05-02T00:27:01.301Z,7.97
2019-05-02T00:29:34.784Z,8.80
2019-05-02T00:32:07.572Z,8.10
2019-05-02T00:34:41.392Z,7.43
2019-05-02T00:37:14.067Z,7.93
2019-05-02T00:39:49.170Z,7.30
2019-05-02T00:42:22.507Z,8.87
2019-05-02T00:44:55.476Z,8.47
2019-05-02T00:47:47.723Z,7.83
2019-05-02T00:50:21.325Z,6.53
2019-05-02T00:52:53.998Z,7.70
2019-05-02T00:55:28.960Z,6.07
2019-05-02T00:58:02.116Z,6.57
2019-05-02T01:00:37.047Z,8.60
2019-05-02T01:03:11.054Z,8.53
2019-05-02T01:05:44.861Z,8.47
2019-05-02T01:08:17.553Z,8.70
2019-05-02T01:10:52.148Z,7.47
2019-05-02T01:13:26.907Z,8.30
2019-05-02T01:16:01.017Z,8.40
2019-05-02T01:18:37.142Z,8.33
2019-05-02T01:21:08.058Z,7.23
2019-05-02T01:23:40.679Z,7.63
2019-05-02T01:26:13.354Z,8.07
2019-05-02T01:28:49.132Z,7.37
2019-05-02T01:31:38.079Z,7.80
2019-05-02T01:34:28.776Z,8.60
2019-05-02T01:37:03.092Z,8.37
2019-05-02T01:39:37.932Z,8.27
2019-05-02T01:42:11.364Z,8.93
2019-05-02T01:44:44.000Z,8.57
2019-05-02T01:47:17.449Z,9.07
2019-05-02T01:49:51.961Z,8.23
2019-05-02T01:52:25.705Z,8.37
2019-05-02T01:54:58.408Z,8.70
2019-05-02T01:57:31.179Z,9.30
2019-05-02T02:00:09.593Z,9.37
2019-05-02T02:02:39.315Z,7.97
2019-05-02T02:05:12.088Z,9.10
2019-05-02T02:07:44.759Z,8.43
2019-05-02T02:10:19.805Z,8.07
2019-05-02T02:13:03.562Z,8.97
2019-05-02T02:15:29.088Z,9.63
2019-05-02T02:18:00.804Z,8.57
2019-05-02T02:20:45.189Z,8.57
2019-05-02T02:23:32.068Z,10.30
2019-05-02T02:26:13.879Z,10.27
2019-05-02T02:28:46.551Z,9.73
2019-05-02T02:31:25.304Z,9.93
2019-05-02T02:33:59.722Z,9.40
2019-05-02T02:36:34.627Z,9.57
2019-05-02T02:39:14.586Z,9.47
2019-05-02T02:41:45.319Z,9.50
2019-05-02T02:44:39.844Z,10.27
2019-05-02T02:47:18.759Z,9.73
2019-05-02T02:49:45.773Z,10.77
2019-05-02T02:52:18.442Z,11.20
2019-05-02T02:54:51.084Z,9.00
2019-05-02T02:57:27.933Z,11.73
2019-05-02T03:00:06.732Z,10.27
2019-05-02T03:02:33.304Z,10.33
2019-05-02T03:05:08.690Z,11.50
2019-05-02T03:07:41.385Z,10.80
2019-05-02T03:10:14.169Z,12.00
2019-05-02T03:12:49.646Z,8.20
2019-05-02T03:15:27.866Z,12.40
2019-05-02T03:18:00.048Z,9.73
2019-05-02T03:20:40.149Z,11.20
2019-05-02T03:23:07.190Z,9.83
2019-05-02T03:25:50.487Z,9.43
2019-05-02T03:28:18.618Z,10.57
2019-05-02T03:30:49.210Z,9.33
2019-05-02T03:33:22.349Z,10.30
2019-05-02T03:35:56.362Z,9.67
2019-05-02T03:38:32.385Z,11.37
2019-05-02T03:41:04.455Z,10.50
2019-05-02T03:43:37.122Z,11.97
2019-05-02T03:46:13.495Z,11.33
2019-05-02T03:48:44.426Z,11.23
2019-05-02T03:51:21.439Z,10.93
2019-05-02T03:53:51.524Z,9.23
2019-05-02T03:56:24.308Z,10.03
2019-05-02T03:58:58.174Z,11.37
2019-05-02T04:01:34.835Z,11.77
2019-05-02T04:04:07.462Z,10.63
2019-05-02T04:06:40.293Z,11.13
2019-05-02T04:09:32.037Z,11.13
2019-05-02T04:12:11.781Z,10.43
2019-05-02T04:14:40.101Z,9.07
2019-05-02T04:17:13.495Z,11.07
2019-05-02T04:19:46.476Z,10.37
2019-05-02T04:22:21.325Z,11.03
2019-05-02T04:24:54.836Z,10.47
2019-05-02T04:27:34.127Z,11.20
2019-05-02T04:30:09.721Z,7.00
2019-05-02T04:32:37.645Z,9.70
2019-05-02T04:35:10.325Z,11.13
2019-05-02T04:37:43.827Z,8.70
2019-05-02T04:40:18.232Z,10.83
2019-05-02T04:43:01.053Z,9.37
2019-05-02T04:45:35.905Z,11.37
2019-05-02T04:48:03.923Z,10.37
2019-05-02T04:50:34.073Z,10.40
2019-05-02T04:53:08.614Z,10.87
2019-05-02T04:55:42.096Z,8.57
2019-05-02T04:58:24.263Z,9.83
2019-05-02T05:00:53.568Z,10.07
2019-05-02T05:03:24.027Z,10.90
2019-05-02T05:05:59.364Z,10.53
2019-05-02T05:08:31.922Z,11.50
2019-05-02T05:11:04.783Z,7.50
2019-05-02T05:13:37.597Z,9.40
2019-05-02T05:16:15.351Z,10.83
2019-05-02T05:18:49.384Z,9.97
2019-05-02T05:21:19.667Z,11.70
2019-05-02T05:24:00.979Z,8.87
2019-05-02T05:26:33.791Z,11.33
2019-05-02T05:29:08.215Z,10.43
2019-05-02T05:31:41.019Z,9.57
2019-05-02T05:34:13.740Z,9.60
2019-05-02T05:36:48.147Z,11.07
2019-05-02T05:39:20.989Z,11.27
2019-05-02T05:41:55.098Z,9.93
2019-05-02T05:44:32.465Z,10.07
2019-05-02T05:47:02.831Z,11.47
2019-05-02T05:49:37.513Z,11.53
2019-05-02T05:52:10.525Z,12.57
2019-05-02T05:54:43.309Z,12.63
2019-05-02T05:57:20.826Z,12.87
2019-05-02T05:59:50.922Z,12.47
2019-05-02T06:02:23.620Z,11.73
2019-05-02T06:05:02.538Z,11.07
2019-05-02T06:07:33.099Z,12.23
2019-05-02T06:10:07.944Z,11.50
2019-05-02T06:12:40.153Z,12.00
2019-05-02T06:15:12.981Z,13.27
2019-05-02T06:17:45.623Z,14.53
2019-05-02T06:20:18.494Z,13.63
2019-05-02T06:22:55.084Z,14.30
2019-05-02T06:25:34.191Z,11.77
2019-05-02T06:28:05.462Z,12.03
2019-05-02T06:30:36.182Z,12.77
2019-05-02T06:33:08.872Z,13.57
2019-05-02T06:35:41.848Z,12.33
2019-05-02T06:38:14.475Z,13.43
2019-05-02T06:40:47.916Z,11.43
2019-05-02T06:43:21.211Z,12.70
2019-05-02T06:45:53.989Z,12.30
2019-05-02T06:48:26.678Z,11.03
2019-05-02T06:51:00.739Z,11.27
2019-05-02T06:53:35.105Z,12.87
2019-05-02T06:56:07.937Z,11.70
2019-05-02T06:58:43.299Z,11.23
2019-05-02T07:01:20.635Z,10.63
2019-05-02T07:03:50.528Z,12.10
2019-05-02T07:06:23.543Z,10.80
2019-05-02T07:08:59.669Z,12.07
2019-05-02T07:11:33.215Z,11.17
2019-05-02T07:14:13.675Z,10.63
2019-05-02T07:16:43.299Z,10.50
2019-05-02T07:19:36.084Z,13.17
2019-05-02T07:22:10.017Z,12.00
2019-05-02T07:24:42.839Z,10.67
2019-05-02T07:27:15.572Z,11.00
2019-05-02T07:29:52.184Z,11.90
2019-05-02T07:32:24.655Z,13.73
2019-05-02T07:34:57.811Z,14.60
2019-05-02T07:37:31.902Z,14.20
2019-05-02T07:40:06.544Z,13.23
2019-05-02T07:42:41.834Z,13.77
2019-05-02T07:45:15.991Z,13.20
2019-05-02T07:47:48.708Z,10.93
2019-05-02T07:50:21.692Z,14.13
2019-05-02T07:52:54.445Z,10.93
2019-05-02T07:55:30.541Z,13.07
2019-05-02T07:58:07.010Z,11.77
2019-05-02T08:00:37.113Z,12.07
2019-05-02T08:03:10.783Z,12.80
2019-05-02T08:05:43.477Z,11.27
2019-05-02T08:08:16.141Z,8.50
2019-05-02T08:10:53.862Z,10.97
2019-05-02T08:13:23.755Z,10.10
2019-05-02T08:15:58.373Z,12.43
2019-05-02T08:18:31.752Z,12.47
2019-05-02T08:21:04.768Z,8.97
2019-05-02T08:23:37.555Z,11.87
2019-05-02T08:26:10.222Z,11.00
2019-05-02T08:28:46.959Z,12.20
2019-05-02T08:31:20.861Z,10.83
2019-05-02T08:33:53.175Z,10.60
2019-05-02T08:36:25.868Z,10.97
2019-05-02T08:38:58.634Z,10.47
2019-05-02T08:41:31.923Z,10.50
2019-05-02T08:44:04.709Z,10.30
2019-05-02T08:46:37.400Z,11.10
2019-05-02T08:49:14.200Z,10.00
2019-05-02T08:51:44.496Z,10.87
2019-05-02T08:54:17.167Z,11.30
2019-05-02T08:56:53.340Z,8.47
2019-05-02T08:59:26.221Z,10.27
2019-05-02T09:01:59.603Z,10.33
2019-05-02T09:04:32.401Z,10.30
2019-05-02T09:07:05.035Z,9.80
2019-05-02T09:09:37.863Z,10.07
2019-05-02T09:12:13.253Z,9.67
2019-05-02T09:14:44.962Z,10.50
2019-05-02T09:17:17.583Z,7.10
2019-05-02T09:20:00.285Z,9.63
2019-05-02T09:22:26.571Z,11.57
2019-05-02T09:25:02.113Z,11.10
2019-05-02T09:27:34.793Z,8.20
2019-05-02T09:30:17.099Z,8.70
2019-05-02T09:32:47.646Z,8.90
2019-05-02T09:35:22.951Z,8.73
2019-05-02T09:37:55.346Z,7.53
2019-05-02T09:40:28.018Z,7.83
2019-05-02T09:43:02.824Z,8.20
2019-05-02T09:45:37.511Z,8.20
2019-05-02T09:48:12.577Z,7.13
2019-05-02T09:50:45.803Z,8.03
2019-05-02T09:53:20.761Z,7.73
2019-05-02T09:55:57.713Z,9.13
2019-05-02T09:58:28.974Z,9.07
2019-05-02T10:01:03.288Z,9.73
2019-05-02T10:03:35.905Z,8.73
2019-05-02T10:06:16.443Z,9.83
2019-05-02T10:08:46.344Z,9.73
2019-05-02T10:11:22.499Z,9.67
2019-05-02T10:13:55.293Z,8.67
2019-05-02T10:16:27.448Z,7.73
2019-05-02T10:19:09.516Z,8.87
2019-05-02T10:21:35.975Z,9.10
2019-05-02T10:24:08.869Z,8.77
2019-05-02T10:26:42.041Z,9.93
2019-05-02T10:29:15.147Z,8.60
2019-05-02T10:31:47.931Z,9.30
2019-05-02T10:34:22.683Z,10.13
2019-05-02T10:36:58.951Z,9.30
2019-05-02T10:39:36.135Z,10.10
2019-05-02T10:42:03.664Z,8.33
2019-05-02T10:44:36.695Z,8.77
2019-05-02T10:47:09.533Z,8.50
2019-05-02T10:49:43.756Z,9.03
2019-05-02T10:52:16.532Z,9.80
2019-05-02T10:54:49.213Z,8.80
2019-05-02T10:57:22.025Z,8.93
2019-05-02T10:59:56.240Z,9.07
2019-05-02T11:02:36.146Z,7.80
2019-05-02T11:05:11.982Z,7.60
2019-05-02T11:07:44.789Z,8.10
2019-05-02T11:10:19.325Z,7.37
2019-05-02T11:13:09.746Z,8.20
2019-05-02T11:15:52.505Z,7.40
2019-05-02T11:18:39.429Z,6.67
2019-05-02T11:21:06.818Z,6.07
2019-05-02T11:23:36.289Z,7.80
2019-05-02T11:26:16.339Z,6.67
2019-05-02T11:28:43.893Z,6.93
2019-05-02T11:31:16.777Z,7.80
2019-05-02T11:33:49.461Z,5.63
2019-05-02T11:36:22.502Z,6.87
2019-05-02T11:39:03.208Z,7.47
2019-05-02T11:41:31.743Z,7.60
2019-05-02T11:44:05.399Z,7.90
2019-05-02T11:46:42.934Z,7.60
2019-05-02T11:49:13.765Z,4.63
2019-05-02T11:51:47.183Z,7.57
2019-05-02T11:54:22.625Z,7.47
2019-05-02T11:56:55.155Z,6.70
2019-05-02T11:59:29.317Z,7.80
2019-05-02T12:02:17.507Z,8.67
2019-05-02T12:04:47.333Z,7.60
2019-05-02T12:07:18.602Z,5.80
2019-05-02T12:09:56.836Z,8.13
2019-05-02T12:12:27.203Z,7.60
2019-05-02T12:15:02.467Z,5.77
2019-05-02T12:17:35.211Z,5.43
2019-05-02T12:20:08.553Z,8.33
2019-05-02T12:22:41.977Z,6.70
2019-05-02T12:25:15.503Z,9.10
2019-05-02T12:27:48.177Z,6.63
2019-05-02T12:30:22.850Z,7.10
2019-05-02T12:32:57.087Z,7.27
2019-05-02T12:35:32.123Z,6.37
2019-05-02T12:38:04.603Z,7.70
2019-05-02T12:40:37.267Z,7.37
2019-05-02T12:43:11.836Z,7.50
2019-05-02T12:45:44.361Z,8.10
2019-05-02T12:48:17.060Z,6.60
2019-05-02T12:50:49.818Z,7.70
2019-05-02T12:53:23.105Z,7.70
2019-05-02T12:55:57.021Z,7.57
2019-05-02T12:58:29.707Z,8.90
2019-05-02T13:01:02.917Z,8.10
2019-05-02T13:03:37.259Z,7.60
2019-05-02T13:06:12.098Z,6.23
2019-05-02T13:08:52.502Z,8.47
2019-05-02T13:11:32.010Z,7.93
2019-05-02T13:14:04.570Z,7.00
2019-05-02T13:16:37.295Z,7.27
2019-05-02T13:19:11.928Z,8.10
2019-05-02T13:22:02.534Z,7.80
2019-05-02T13:24:36.740Z,8.30
2019-05-02T13:27:12.596Z,7.37
2019-05-02T13:29:45.736Z,6.87
2019-05-02T13:32:21.764Z,6.37
2019-05-02T13:35:12.869Z,5.90
2019-05-02T13:37:47.314Z,8.63
2019-05-02T13:40:22.724Z,8.13
2019-05-02T13:42:55.503Z,7.10
2019-05-02T13:45:33.086Z,7.50
2019-05-02T13:48:07.294Z,7.97
2019-05-02T13:50:40.084Z,9.30
2019-05-02T13:53:12.814Z,9.90
2019-05-02T13:55:49.639Z,10.13
2019-05-02T13:58:28.908Z,8.17
2019-05-02T14:00:56.586Z,7.80
2019-05-02T14:03:29.271Z,9.27
2019-05-02T14:06:02.952Z,7.33
2019-05-02T14:08:37.655Z,6.33
2019-05-02T14:11:10.014Z,7.93
2019-05-02T14:13:42.751Z,7.50
2019-05-02T14:16:15.391Z,9.07
2019-05-02T14:18:48.155Z,9.23
2019-05-02T14:21:22.407Z,8.37
2019-05-02T14:23:55.110Z,8.17
2019-05-02T14:26:30.576Z,9.33
2019-05-02T14:29:02.534Z,8.73
2019-05-02T14:31:36.781Z,8.77
2019-05-02T14:34:23.582Z,8.20
2019-05-02T14:36:59.237Z,7.03
2019-05-02T14:39:32.513Z,8.27
2019-05-02T14:42:05.512Z,8.13
2019-05-02T14:45:01.481Z,9.57
2019-05-02T14:47:18.200Z,10.17
2019-05-02T14:49:48.315Z,10.73
2019-05-02T14:52:22.141Z,8.37
2019-05-02T14:54:55.755Z,8.70
2019-05-02T14:57:28.607Z,8.73
2019-05-02T15:00:03.249Z,8.80
2019-05-02T15:02:48.784Z,9.27
2019-05-02T15:05:19.233Z,8.20
2019-05-02T15:07:56.933Z,9.10
2019-05-02T15:10:27.415Z,7.73
2019-05-02T15:13:01.931Z,8.30
2019-05-02T15:15:40.860Z,7.73
2019-05-02T15:18:15.832Z,8.83
2019-05-02T15:20:44.880Z,7.40
2019-05-02T15:23:19.835Z,7.70
2019-05-02T15:25:55.975Z,9.23
2019-05-02T15:28:30.579Z,9.27
2019-05-02T15:31:05.337Z,8.07
2019-05-02T15:33:39.554Z,6.43
2019-05-02T15:36:14.212Z,7.87
2019-05-02T15:38:47.614Z,6.90
2019-05-02T15:41:21.819Z,8.07
2019-05-02T15:43:54.658Z,8.40
2019-05-02T15:46:28.343Z,8.67
2019-05-02T15:49:01.862Z,9.07
2019-05-02T15:51:37.927Z,10.60
2019-05-02T15:54:12.517Z,10.03
2019-05-02T15:57:00.341Z,8.43
2019-05-02T15:59:41.681Z,7.97
2019-05-02T16:02:17.589Z,8.13
2019-05-02T16:04:52.127Z,8.20
2019-05-02T16:07:24.523Z,8.87
2019-05-02T16:10:01.163Z,8.40
2019-05-02T16:12:35.930Z,7.27
2019-05-02T16:15:13.440Z,8.00
2019-05-02T16:17:42.912Z,8.93
2019-05-02T16:20:17.172Z,8.17
2019-05-02T16:22:50.088Z,9.63
2019-05-02T16:25:24.488Z,8.53
2019-05-02T16:28:02.653Z,9.13
2019-05-02T16:30:32.551Z,7.33
2019-05-02T16:33:08.003Z,9.07
2019-05-02T16:35:39.659Z,8.40
2019-05-02T16:38:14.375Z,8.53
2019-05-02T16:40:47.158Z,8.60
2019-05-02T16:43:19.934Z,7.50
2019-05-02T16:45:52.638Z,7.77
2019-05-02T16:48:32.337Z,7.03
2019-05-02T16:51:02.172Z,8.87
2019-05-02T16:53:36.294Z,8.53
2019-05-02T16:56:09.066Z,7.07
2019-05-02T16:58:43.402Z,8.73
2019-05-02T17:01:24.628Z,8.70
2019-05-02T17:03:50.482Z,7.80
2019-05-02T17:06:25.988Z,6.30
2019-05-02T17:08:58.795Z,8.07
2019-05-02T17:11:35.886Z,7.60
2019-05-02T17:14:12.110Z,9.20
2019-05-02T17:16:42.378Z,9.23
2019-05-02T17:19:15.068Z,8.27
2019-05-02T17:21:54.015Z,8.43
2019-05-02T17:24:26.027Z,8.27
2019-05-02T17:26:56.327Z,8.60
2019-05-02T17:29:29.051Z,6.73
2019-05-02T17:32:02.232Z,7.20
2019-05-02T17:34:35.111Z,7.63
2019-05-02T17:37:11.512Z,8.07
2019-05-02T17:39:45.971Z,8.03
2019-05-02T17:42:17.016Z,6.60
2019-05-02T17:44:51.698Z,6.73
2019-05-02T17:47:25.230Z,5.57
2019-05-02T17:50:01.963Z,6.43
2019-05-02T17:52:38.629Z,7.37
2019-05-02T17:55:13.819Z,6.50
2019-05-02T17:57:46.552Z,7.17
2019-05-02T18:00:21.615Z,7.23
2019-05-02T18:02:54.474Z,8.57
2019-05-02T18:05:32.061Z,7.97
2019-05-02T18:08:01.460Z,8.73
2019-05-02T18:10:34.197Z,8.40
2019-05-02T18:13:07.241Z,7.67
2019-05-02T18:15:41.732Z,7.17
2019-05-02T18:18:14.331Z,8.30
2019-05-02T18:20:47.062Z,7.53
2019-05-02T18:23:24.079Z,7.30
2019-05-02T18:25:57.316Z,6.87
2019-05-02T18:28:28.432Z,8.70
2019-05-02T18:31:02.772Z,9.10
2019-05-02T18:33:35.954Z,12.90
2019-05-02T18:36:09.847Z,8.93
2019-05-02T18:38:42.461Z,9.70
2019-05-02T18:41:15.707Z,6.70
2019-05-02T18:43:48.399Z,7.17
2019-05-02T18:46:22.316Z,8.13
2019-05-02T18:48:55.287Z,7.43
2019-05-02T18:51:28.072Z,7.30
2019-05-02T18:54:04.270Z,9.43
2019-05-02T18:56:42.807Z,8.07
2019-05-02T18:59:09.374Z,9.53
2019-05-02T19:01:42.733Z,10.07
2019-05-02T19:04:15.651Z,8.90
2019-05-02T19:06:48.335Z,7.80
2019-05-02T19:09:22.881Z,9.97
2019-05-02T19:12:05.030Z,10.53
2019-05-02T19:14:29.757Z,12.03
2019-05-02T19:17:05.450Z,8.87
2019-05-02T19:19:38.099Z,10.07
2019-05-02T19:22:13.241Z,9.50
2019-05-02T19:24:45.192Z,9.23
2019-05-02T19:27:21.070Z,11.27
2019-05-02T19:29:54.823Z,11.50
2019-05-02T19:32:28.463Z,9.10
2019-05-02T19:35:06.833Z,8.63
2019-05-02T19:37:44.617Z,10.60
2019-05-02T19:40:20.067Z,9.03
2019-05-02T19:42:52.703Z,9.87
2019-05-02T19:45:25.863Z,10.07
2019-05-02T19:47:58.859Z,8.80
2019-05-02T19:50:43.506Z,12.10
2019-05-02T19:53:17.880Z,11.73
2019-05-02T19:55:47.546Z,12.23
2019-05-02T19:58:20.522Z,9.63
2019-05-02T20:00:53.198Z,9.27
2019-05-02T20:03:26.600Z,11.50
2019-05-02T20:06:02.467Z,10.97
2019-05-02T20:08:33.703Z,9.47
2019-05-02T20:11:06.574Z,10.60
2019-05-02T20:13:39.472Z,9.27
2019-05-02T20:16:17.272Z,11.17
2019-05-02T20:18:52.549Z,12.10
2019-05-02T20:21:28.054Z,7.70
2019-05-02T20:24:02.072Z,10.13
2019-05-02T20:26:35.862Z,11.53
2019-05-02T20:29:08.960Z,11.60
2019-05-02T20:31:41.894Z,11.57
2019-05-02T20:34:14.935Z,9.43
2019-05-02T20:36:47.604Z,10.37
2019-05-02T20:39:22.357Z,9.00
2019-05-02T20:41:54.829Z,9.97
2019-05-02T20:44:28.362Z,11.47
2019-05-02T20:47:02.623Z,11.73
2019-05-02T20:49:35.409Z,10.70
2019-05-02T20:52:08.095Z,12.20
2019-05-02T20:54:42.689Z,11.13
2019-05-02T20:57:15.794Z,10.87
2019-05-02T20:59:48.576Z,10.00
2019-05-02T21:02:21.865Z,8.23
2019-05-02T21:04:54.571Z,10.93
2019-05-02T21:07:33.061Z,10.40
2019-05-02T21:10:12.568Z,10.10
2019-05-02T21:12:45.497Z,12.27
2019-05-02T21:15:18.417Z,10.83
2019-05-02T21:17:51.108Z,8.80
2019-05-02T21:20:24.965Z,10.47
2019-05-02T21:22:57.650Z,10.40
2019-05-02T21:25:32.412Z,9.30
2019-05-02T21:28:04.684Z,12.47
2019-05-02T21:30:37.428Z,11.80
2019-05-02T21:33:17.488Z,10.17
2019-05-02T21:35:51.815Z,11.40
2019-05-02T21:38:24.567Z,9.20
2019-05-02T21:40:57.269Z,9.70
2019-05-02T21:43:31.646Z,8.97
2019-05-02T21:46:04.710Z,9.67
2019-05-02T21:48:37.330Z,10.70
2019-05-02T21:51:12.269Z,9.17
2019-05-02T21:54:04.816Z,8.50
2019-05-02T21:56:43.025Z,11.27
2019-05-02T21:59:15.902Z,8.73
2019-05-02T22:01:57.843Z,9.37
2019-05-02T22:04:31.835Z,8.63
2019-05-02T22:07:05.004Z,12.33
2019-05-02T22:09:38.701Z,10.77
2019-05-02T22:12:12.086Z,9.97
2019-05-02T22:14:45.686Z,10.47
2019-05-02T22:17:18.436Z,10.70
2019-05-02T22:19:52.406Z,12.50
2019-05-02T22:22:25.575Z,12.23
2019-05-02T22:24:58.258Z,10.90
2019-05-02T22:27:32.502Z,11.37
2019-05-02T22:30:08.539Z,9.63
2019-05-02T22:32:42.757Z,10.50
2019-05-02T22:35:15.747Z,9.53
2019-05-02T22:37:50.009Z,10.90
2019-05-02T22:40:22.737Z,11.63
2019-05-02T22:42:55.411Z,14.07
2019-05-02T22:45:28.198Z,11.53
2019-05-02T22:48:02.601Z,10.53
2019-05-02T22:50:36.099Z,12.67
2019-05-02T22:53:08.807Z,10.83
2019-05-02T22:55:42.555Z,13.93
2019-05-02T22:58:15.370Z,12.37
2019-05-02T23:00:48.063Z,12.97
2019-05-02T23:03:21.535Z,14.93
2019-05-02T23:05:55.257Z,13.10
2019-05-02T23:08:28.043Z,12.80
2019-05-02T23:11:01.135Z,14.33
2019-05-02T23:13:34.118Z,14.77
2019-05-02T23:16:07.156Z,16.10
2019-05-02T23:18:40.099Z,15.43
2019-05-02T23:21:12.962Z,14.70
2019-05-02T23:23:45.641Z,15.20
2019-05-02T23:26:27.586Z,15.23
2019-05-02T23:29:02.355Z,15.93
2019-05-02T23:31:36.068Z,15.17
2019-05-02T23:34:09.786Z,15.87
2019-05-02T23:36:42.473Z,10.63
2019-05-02T23:39:15.235Z,15.50
2019-05-02T23:41:47.924Z,15.23
2019-05-02T23:44:22.698Z,15.30
2019-05-02T23:46:56.100Z,13.70
2019-05-02T23:49:29.151Z,16.53
2019-05-02T23:52:02.258Z,16.87
2019-05-02T23:54:35.406Z,13.13
2019-05-02T23:57:08.091Z,10.00
2019-05-02T23:59:42.421Z,16.77
